< Typhoon 201902 2019 Season Typhoon 201904 >
Typhoon 201903 (SEPAT)
General InformationTrack Information on Google MapsDetailed Wind InformationForecast History on Google MapsAccess Analytics MapList of All Images || NewsDisaster Info.WeblogTrackbackTyphoon FrontTwiphoonTyphoon Now!Typhoon ImaginationJMA Disaster Info. XMLResourceGoogle EarthGE AnimationAtom FeedGeoJSON
Detalied Best Track (Time Zone = UTC)
Year Month Day Hour Lat. Long. Pressure (hPa) Wind (kt) Class Image Chart
2019 6 24 12 17.9 127.7 1008 0 2 Image Chart
2019 6 24 18 18.4 127.8 1006 0 2 Image Chart
2019 6 25 00 18.9 127.9 1006 0 2 Image Chart
2019 6 25 06 19.4 128.0 1006 0 2 Image Chart
2019 6 25 12 19.8 128.1 1006 0 2 Image Chart
2019 6 25 18 20.5 128.2 1006 0 2 Image Chart
2019 6 26 00 21.4 128.4 1004 0 2 Image Chart
2019 6 26 06 22.9 128.8 1004 0 2 Image Chart
2019 6 26 12 24.8 129.5 1004 0 2 Image Chart
2019 6 26 18 26.4 130.0 1004 0 2 Image Chart
2019 6 27 00 28.4 130.4 1002 0 2 Image Chart
2019 6 27 06 30.8 132.0 1000 0 2 Image Chart
2019 6 27 12 32.6 134.7 998 35 3 Image Chart
2019 6 27 18 34.1 137.6 996 40 3 Image Chart
2019 6 28 00 35.2 141.6 994 40 3 Image Chart
2019 6 28 06 36.0 147.0 992 0 6 Image Chart
2019 6 28 12 37.0 151.0 992 0 6 Image Chart
2019 6 28 18 38.0 154.3 994 0 6 Image Chart
2019 6 29 00 39.0 156.3 994 0 6 Image Chart
2019 6 29 06 39.8 158.5 998 0 6 Image Chart
2019 6 29 12 41.0 160.1 1002 0 6 Image Chart
2019 6 29 18 42.2 160.8 1004 0 6 Image Chart
2019 6 30 00 43.8 161.6 1004 0 6 Image Chart
2019 6 30 06 44.3 163.3 1004 0 6 Image Chart
2019 6 30 12 45.0 165.5 1004 0 6 Image Chart
2019 6 30 18 46.1 168.2 1004 0 6 Image Chart
2019 7 1 00 47.4 169.9 1004 0 6 Image Chart
2019 7 1 06 49.3 172.2 1004 0 6 Image Chart
2019 7 1 12 51.3 174.3 1002 0 6 Image Chart
2019 7 1 18 53.6 176.7 1002 0 6 Image Chart
2019 7 2 00 57.2 178.7 1002 0 6 Image Chart
2019 7 2 06 59.5 179.5 1002 0 6 Image Chart
2019 7 2 12 61.1 182.0 1002 0 6 Image Chart
Japan Meteorological Agency Best Track Data | Correction Date : 2019-08-05
< Typhoon 201902 2019 Season Typhoon 201904 >

Help